Time;durP1;ratioP1;P1;durP2;ratioP2;P2;SDS_P1;SDS_P2;PMS_P1;PMS_P2;Temp;Humidity;BMP_temperature;BMP_pressure;BME280_temperature;BME280_humidity;BME280_pressure;Samples;Min_cycle;Max_cycle;Signal;HPM_P1;HPM_P2
2021/06/07 00:02:05;;;;;;;5.42;2.27;;;;;;;15.47;66.98;99819.34;1745639;80;21467;-85
2021/06/07 00:04:31;;;;;;;3.77;2.45;;;;;;;15.45;66.95;99816.86;1765132;79;21060;-83
2021/06/07 00:06:59;;;;;;;3.00;2.35;;;;;;;15.43;66.96;99816.16;1779186;78;20963;-85
2021/06/07 00:09:28;;;;;;;4.62;2.33;;;;;;;15.44;66.96;99817.00;1752616;79;21070;-84
2021/06/07 00:11:59;;;;;;;3.00;2.30;;;;;;;15.41;66.98;99820.83;1764585;79;21854;-83
2021/06/07 00:14:30;;;;;;;3.87;2.37;;;;;;;15.41;66.97;99821.33;1720107;80;21040;-86
2021/06/07 00:16:57;;;;;;;4.33;2.15;;;;;;;15.39;66.90;99818.02;1753380;80;21881;-85
2021/06/07 00:19:27;;;;;;;4.75;2.33;;;;;;;15.36;67.00;99819.19;1753456;80;20937;-84
2021/06/07 00:21:56;;;;;;;3.75;2.25;;;;;;;15.35;67.11;99825.50;1751412;80;21090;-83
2021/06/07 00:24:22;;;;;;;5.50;2.10;;;;;;;15.34;67.23;99821.66;1740934;80;22851;-82
2021/06/07 00:26:49;;;;;;;6.15;2.42;;;;;;;15.31;67.22;99826.81;1761999;79;21063;-86
2021/06/07 00:29:15;;;;;;;3.08;2.10;;;;;;;15.29;67.34;99823.49;1746667;79;21020;-83
2021/06/07 00:31:44;;;;;;;3.35;2.10;;;;;;;15.28;67.54;99821.01;1760175;80;21015;-85
2021/06/07 00:34:11;;;;;;;5.80;2.37;;;;;;;15.28;67.72;99821.01;1730542;81;21016;-85
2021/06/07 00:36:38;;;;;;;3.62;2.20;;;;;;;15.27;67.87;99818.02;1750270;79;22408;-85
2021/06/07 00:39:08;;;;;;;4.47;2.17;;;;;;;15.25;68.12;99818.19;1740435;82;21545;-84
2021/06/07 00:41:35;;;;;;;3.55;2.10;;;;;;;15.20;68.28;99811.18;1712640;81;21027;-86
2021/06/07 00:44:11;;;;;;;3.40;2.20;;;;;;;15.18;68.54;99818.00;1766914;80;22590;-85
2021/06/07 00:46:38;;;;;;;4.05;2.20;;;;;;;15.15;68.68;99815.69;1733278;82;21430;-84
2021/06/07 00:49:05;;;;;;;4.05;2.20;;;;;;;15.12;68.93;99812.00;1731207;81;22484;-86
2021/06/07 00:51:34;;;;;;;3.00;2.15;;;;;;;15.10;69.10;99815.83;1687540;83;20953;-85
2021/06/07 00:54:03;;;;;;;3.95;2.20;;;;;;;15.07;69.17;99814.34;1754770;79;20964;-84
2021/06/07 00:56:29;;;;;;;5.53;2.25;;;;;;;15.04;69.54;99817.30;1760854;78;21016;-85
2021/06/07 00:58:57;;;;;;;3.12;2.30;;;;;;;15.01;69.67;99818.14;1741983;80;21091;-86
2021/06/07 01:01:26;;;;;;;6.50;2.50;;;;;;;14.99;69.91;99816.98;1713564;81;21591;-86
2021/06/07 01:03:56;;;;;;;2.90;2.12;;;;;;;14.95;70.11;99814.30;1738454;81;21142;-85
2021/06/07 01:06:24;;;;;;;5.62;2.40;;;;;;;14.93;70.10;99814.13;1725836;82;21084;-86
2021/06/07 01:08:50;;;;;;;7.90;2.02;;;;;;;14.92;70.30;99813.80;1770937;80;21030;-86
2021/06/07 01:11:17;;;;;;;3.37;2.50;;;;;;;14.91;70.31;99817.45;1745854;79;21035;-85
2021/06/07 01:13:46;;;;;;;2.90;2.20;;;;;;;14.91;70.36;99817.45;1751897;80;21016;-84
2021/06/07 01:16:12;;;;;;;4.33;2.20;;;;;;;14.90;70.41;99815.30;1757592;79;21103;-87
2021/06/07 01:18:39;;;;;;;5.12;2.12;;;;;;;14.89;70.54;99814.47;1753348;79;21024;-84
2021/06/07 01:21:10;;;;;;;5.17;2.50;;;;;;;14.89;70.57;99817.13;1737381;79;20961;-85
2021/06/07 01:23:37;;;;;;;3.25;2.35;;;;;;;14.88;70.67;99814.14;1776331;79;21315;-85
2021/06/07 01:26:05;;;;;;;3.33;2.30;;;;;;;14.86;70.86;99813.48;1754798;80;21777;-84
2021/06/07 01:28:32;;;;;;;4.30;2.35;;;;;;;14.85;70.85;99817.09;1758751;79;21107;-84
2021/06/07 01:30:59;;;;;;;4.15;2.12;;;;;;;14.86;70.89;99819.27;1761854;79;21861;-84
2021/06/07 01:33:26;;;;;;;4.65;2.17;;;;;;;14.88;70.97;99822.11;1736624;82;21582;-84
2021/06/07 01:35:57;;;;;;;7.20;2.10;;;;;;;14.88;71.05;99816.80;1704858;82;21138;-84
2021/06/07 01:38:24;;;;;;;6.30;2.20;;;;;;;14.88;71.08;99816.80;1693008;82;21564;-85
2021/06/07 01:40:53;;;;;;;4.90;2.30;;;;;;;14.90;71.12;99820.62;1747346;80;20983;-84
2021/06/07 01:43:20;;;;;;;4.25;2.30;;;;;;;14.92;71.21;99816.46;1765507;80;21015;-83
2021/06/07 01:45:48;;;;;;;3.05;2.10;;;;;;;14.92;71.28;99816.46;1753686;79;20937;-85
2021/06/07 01:48:16;;;;;;;4.08;2.10;;;;;;;14.94;71.33;99819.78;1766118;80;21315;-85
2021/06/07 01:50:42;;;;;;;3.47;2.17;;;;;;;14.91;71.69;99826.27;1764178;80;22647;-86
2021/06/07 01:53:09;;;;;;;3.55;2.30;;;;;;;14.89;71.75;99830.92;1751653;79;20996;-85
2021/06/07 01:55:43;;;;;;;3.65;2.10;;;;;;;14.88;71.89;99826.10;1772732;80;20994;-86
2021/06/07 01:58:10;;;;;;;3.92;2.20;;;;;;;14.88;71.94;99826.10;1745960;80;21080;-85
2021/06/07 02:00:44;;;;;;;5.78;2.37;;;;;;;14.89;72.02;99829.09;1736868;81;21653;-84
2021/06/07 02:03:16;;;;;;;3.05;2.12;;;;;;;14.89;72.24;99825.11;1686852;82;22221;-86
2021/06/07 02:05:46;;;;;;;3.58;2.12;;;;;;;14.91;72.33;99829.42;1761417;79;21170;-84
2021/06/07 02:08:15;;;;;;;4.60;2.15;;;;;;;14.89;72.45;99823.78;1747245;80;21062;-84
2021/06/07 02:10:49;;;;;;;3.10;2.20;;;;;;;14.89;72.52;99817.13;1749928;80;21059;-85
2021/06/07 02:13:15;;;;;;;;;;;;;;;14.91;72.54;99816.95;1758504;79;20996;-85
2021/06/07 02:15:43;;;;;;;3.30;1.92;;;;;;;14.94;72.58;99820.61;1741583;80;21198;-83
2021/06/07 02:18:10;;;;;;;2.95;1.98;;;;;;;14.94;72.60;99815.30;1733289;78;21422;-84
2021/06/07 02:20:38;;;;;;;2.35;1.95;;;;;;;14.96;72.64;99821.30;1750858;80;21561;-84
2021/06/07 02:23:04;;;;;;;3.52;2.27;;;;;;;14.97;72.67;99818.98;1752003;79;21389;-86
2021/06/07 02:25:32;;;;;;;4.45;2.37;;;;;;;14.97;72.74;99822.97;1746829;79;21006;-84
2021/06/07 02:27:58;;;;;;;5.35;2.45;;;;;;;14.96;72.84;99823.97;1728773;80;21755;-86
2021/06/07 02:30:28;;;;;;;4.87;2.25;;;;;;;14.98;72.87;99827.79;1757253;80;21057;-85
2021/06/07 02:32:57;;;;;;;4.10;2.40;;;;;;;14.99;72.85;99826.79;1779596;79;21459;-85
2021/06/07 02:35:24;;;;;;;5.30;2.50;;;;;;;14.99;72.99;99826.79;1752362;79;21027;-85
2021/06/07 02:37:52;;;;;;;3.75;2.10;;;;;;;14.97;73.02;99834.11;1742605;79;21048;-84
2021/06/07 02:40:25;;;;;;;3.55;2.40;;;;;;;14.97;73.13;99832.77;1755582;80;20913;-85
2021/06/07 02:42:52;;;;;;;4.60;2.60;;;;;;;14.95;73.11;99836.90;1753584;80;20972;-84
2021/06/07 02:45:19;;;;;;;4.28;2.60;;;;;;;14.94;73.23;99839.73;1743719;79;21490;-84
2021/06/07 02:47:47;;;;;;;2.95;2.20;;;;;;;14.93;73.31;99838.89;1757309;80;20977;-83
2021/06/07 02:50:18;;;;;;;5.25;2.75;;;;;;;14.95;73.34;99834.24;1758198;79;21040;-84
2021/06/07 02:52:47;;;;;;;2.87;2.33;;;;;;;14.97;73.28;99835.44;1757354;80;21769;-83
2021/06/07 02:55:30;;;;;;;4.05;2.60;;;;;;;14.99;73.28;99829.45;1726909;80;21434;-83
2021/06/07 02:57:57;;;;;;;3.75;2.67;;;;;;;14.99;73.30;99834.27;1742163;80;21524;-83
2021/06/07 03:00:28;;;;;;;4.10;2.70;;;;;;;15.01;73.33;99843.41;1724638;82;21027;-85
2021/06/07 03:02:56;;;;;;;5.90;2.72;;;;;;;15.01;73.31;99836.76;1754104;79;21074;-86
2021/06/07 03:05:23;;;;;;;4.53;2.90;;;;;;;15.01;73.39;99842.08;1749286;80;22649;-83
2021/06/07 03:07:50;;;;;;;3.30;2.50;;;;;;;15.02;73.45;99841.08;1755210;79;21079;-85
2021/06/07 03:10:17;;;;;;;7.03;2.77;;;;;;;15.03;73.46;99840.08;1756913;80;21013;-85
2021/06/07 03:12:44;;;;;;;5.03;2.70;;;;;;;15.04;73.52;99837.25;1755436;80;21427;-84
2021/06/07 03:15:13;;;;;;;4.22;2.75;;;;;;;15.06;73.41;99835.78;1764534;79;21324;-85
2021/06/07 03:17:40;;;;;;;7.75;2.60;;;;;;;15.09;73.40;99831.45;1756845;79;22441;-84
2021/06/07 03:20:10;;;;;;;3.40;2.20;;;;;;;15.11;73.40;99838.77;1693958;81;21397;-85
2021/06/07 03:22:37;;;;;;;6.45;2.70;;;;;;;15.11;73.37;99842.77;1771595;79;20929;-85
2021/06/07 03:25:06;;;;;;;8.63;2.95;;;;;;;15.09;73.37;99836.28;1759248;79;20972;-84
2021/06/07 03:27:32;;;;;;;3.42;2.90;;;;;;;15.11;73.37;99837.44;1736729;80;21313;-85
2021/06/07 03:29:58;;;;;;;6.03;3.08;;;;;;;15.11;73.46;99833.45;1760308;80;22524;-85
2021/06/07 03:32:25;;;;;;;6.22;2.83;;;;;;;15.07;73.50;99835.62;1770981;80;21527;-84
2021/06/07 03:34:51;;;;;;;5.67;3.30;;;;;;;15.08;73.58;99838.61;1742613;80;21147;-86
2021/06/07 03:37:19;;;;;;;5.25;3.30;;;;;;;15.11;73.72;99842.77;1755243;78;21015;-86
2021/06/07 03:39:45;;;;;;;7.20;3.08;;;;;;;15.14;73.77;99839.77;1751413;80;20972;-85
2021/06/07 03:42:12;;;;;;;4.60;3.08;;;;;;;15.20;73.81;99847.59;1748202;79;21818;-85
2021/06/07 03:44:38;;;;;;;6.50;3.20;;;;;;;15.22;73.76;99848.26;1751539;80;21051;-86
2021/06/07 03:47:06;;;;;;;6.50;3.10;;;;;;;15.27;73.73;99852.60;1761712;80;21616;-87
2021/06/07 03:49:33;;;;;;;6.08;3.08;;;;;;;15.34;73.79;99857.58;1754169;80;21074;-86
2021/06/07 03:51:59;;;;;;;5.72;2.85;;;;;;;15.41;73.80;99859.42;1750530;80;21071;-84
2021/06/07 03:54:26;;;;;;;6.40;2.87;;;;;;;15.50;73.69;99855.44;1742504;80;21861;-82
2021/06/07 03:56:52;;;;;;;6.00;3.08;;;;;;;15.56;73.47;99858.77;1735552;80;21127;-83
2021/06/07 03:59:19;;;;;;;4.47;2.98;;;;;;;15.61;73.23;99863.95;1746757;80;21056;-86
2021/06/07 04:01:47;;;;;;;6.90;3.00;;;;;;;15.65;73.05;99856.48;1775663;79;20973;-82
2021/06/07 04:04:14;;;;;;;5.78;3.00;;;;;;;15.71;73.03;99862.45;1750823;80;20964;-88
2021/06/07 04:06:41;;;;;;;4.65;2.85;;;;;;;15.75;72.90;99855.80;1741300;79;21754;-77
2021/06/07 04:09:08;;;;;;;4.60;2.87;;;;;;;15.79;72.79;99855.78;1733753;79;21072;-75
2021/06/07 04:11:34;;;;;;;5.42;2.87;;;;;;;15.83;72.51;99853.14;1767276;79;20937;-77
2021/06/07 04:14:02;;;;;;;7.53;3.10;;;;;;;15.88;72.50;99854.78;1763372;78;20996;-74
2021/06/07 04:16:28;;;;;;;5.25;3.12;;;;;;;15.91;72.37;99853.60;1765314;78;21046;-80
2021/06/07 04:18:55;;;;;;;4.22;2.90;;;;;;;15.93;72.25;99857.78;1755861;79;21889;-79
2021/06/07 04:21:22;;;;;;;6.42;3.02;;;;;;;15.96;72.12;99857.44;1746174;79;20999;-89
2021/06/07 04:23:48;;;;;;;4.92;3.30;;;;;;;15.99;72.13;99859.75;1766305;79;20940;-89
2021/06/07 04:26:16;;;;;;;4.78;3.22;;;;;;;16.04;72.05;99856.59;1748389;79;20917;-84
2021/06/07 04:28:44;;;;;;;4.40;2.92;;;;;;;16.02;71.89;99862.10;1755831;80;20889;-90
2021/06/07 04:31:11;;;;;;;7.58;3.20;;;;;;;16.00;71.89;99861.41;1766901;80;21735;-88
2021/06/07 04:33:37;;;;;;;4.62;3.30;;;;;;;16.03;71.92;99860.27;1756613;80;20964;-87
2021/06/07 04:36:04;;;;;;;4.85;3.20;;;;;;;16.06;71.96;99859.92;1761011;80;20984;-89
2021/06/07 04:38:30;;;;;;;4.92;3.20;;;;;;;16.10;72.08;99865.72;1758935;79;21138;-88
2021/06/07 04:40:58;;;;;;;4.85;3.12;;;;;;;16.13;72.16;99862.75;1752413;79;21154;-89
2021/06/07 04:43:25;;;;;;;4.75;3.45;;;;;;;16.20;72.17;99863.20;1739041;80;21844;-86
2021/06/07 04:45:51;;;;;;;10.05;3.30;;;;;;;16.28;72.10;99864.52;1749491;79;21000;-84
2021/06/07 04:48:17;;;;;;;4.10;3.30;;;;;;;16.38;71.98;99862.16;1717937;81;21579;-76
2021/06/07 04:50:45;;;;;;;4.72;2.98;;;;;;;16.42;71.73;99861.66;1754338;80;21537;-76
2021/06/07 04:53:12;;;;;;;5.65;3.27;;;;;;;16.46;71.71;99854.97;1752097;80;21063;-73
2021/06/07 04:55:50;;;;;;;8.83;3.25;;;;;;;16.55;71.41;99853.94;1756366;79;22493;-80
2021/06/07 04:58:25;;;;;;;6.35;3.50;;;;;;;16.62;71.14;99850.59;1712028;81;21336;-81
2021/06/07 05:00:58;;;;;;;5.45;3.30;;;;;;;16.70;71.20;99851.92;1710204;81;21053;-81
2021/06/07 05:03:30;;;;;;;4.00;2.95;;;;;;;16.77;71.06;99855.02;1739853;81;21068;-80
2021/06/07 05:05:55;;;;;;;6.45;2.80;;;;;;;16.86;70.78;99853.15;1706302;81;21473;-81
2021/06/07 05:08:24;;;;;;;6.22;3.05;;;;;;;16.97;70.74;99854.59;1749022;80;21830;-74
2021/06/07 05:10:52;;;;;;;5.62;2.58;;;;;;;17.07;70.48;99853.36;1738803;81;21040;-84
2021/06/07 05:13:19;;;;;;;7.20;3.00;;;;;;;17.19;70.49;99854.31;1700550;81;21080;-80
2021/06/07 05:15:45;;;;;;;4.30;3.00;;;;;;;17.26;69.85;99861.41;1735272;82;21099;-79
2021/06/07 05:18:12;;;;;;;3.87;2.90;;;;;;;17.27;69.43;99856.90;1775516;80;20960;-79
2021/06/07 05:20:39;;;;;;;4.55;2.77;;;;;;;17.26;69.19;99856.07;1765127;79;21859;-79
2021/06/07 05:23:05;;;;;;;3.70;2.55;;;;;;;17.20;68.68;99853.30;1727457;80;21047;-81
2021/06/07 05:25:33;;;;;;;4.33;2.52;;;;;;;17.12;68.96;99857.67;1757593;78;21075;-79
2021/06/07 05:28:01;;;;;;;5.72;2.80;;;;;;;17.14;69.30;99863.66;1756059;80;21095;-79
2021/06/07 05:30:29;;;;;;;6.42;2.90;;;;;;;17.14;69.06;99858.32;1760916;79;21518;-78
2021/06/07 05:32:56;;;;;;;5.30;2.70;;;;;;;17.08;69.15;99854.19;1742214;79;22463;-79
2021/06/07 05:35:25;;;;;;;3.85;3.00;;;;;;;17.03;69.35;99858.73;1755178;79;21537;-78
2021/06/07 05:37:52;;;;;;;6.03;3.10;;;;;;;17.06;69.55;99864.20;1704745;81;21015;-81
2021/06/07 05:40:20;;;;;;;5.92;2.92;;;;;;;17.08;69.88;99859.05;1748239;80;21044;-79
2021/06/07 05:42:47;;;;;;;5.78;2.80;;;;;;;17.15;69.80;99862.65;1754281;79;21059;-79
2021/06/07 05:45:14;;;;;;;5.83;3.00;;;;;;;17.20;69.79;99862.64;1761284;79;21902;-80
2021/06/07 05:47:41;;;;;;;6.05;3.12;;;;;;;17.24;69.70;99861.27;1759400;80;22350;-79
2021/06/07 05:50:17;;;;;;;8.53;3.10;;;;;;;17.28;69.66;99854.58;1741398;79;21112;-81
2021/06/07 05:52:47;;;;;;;6.15;3.22;;;;;;;17.35;69.53;99862.19;1730234;81;21035;-81
2021/06/07 05:55:17;;;;;;;4.67;2.95;;;;;;;17.39;69.43;99853.66;1748245;79;20972;-77
2021/06/07 05:57:44;;;;;;;7.12;3.40;;;;;;;17.44;69.16;99857.94;1770946;79;21817;-80
2021/06/07 06:00:13;;;;;;;7.03;3.00;;;;;;;17.47;69.17;99855.44;1752739;79;21371;-79
2021/06/07 06:02:40;;;;;;;5.53;2.85;;;;;;;17.55;68.86;99852.68;1772449;79;21525;-78
2021/06/07 06:05:08;;;;;;;4.60;3.02;;;;;;;17.58;68.59;99851.52;1764902;80;21087;-80
2021/06/07 06:07:34;;;;;;;4.03;3.10;;;;;;;17.64;68.49;99850.27;1748601;79;20980;-81
2021/06/07 06:10:01;;;;;;;4.28;2.92;;;;;;;17.71;68.46;99852.58;1761834;79;21825;-79
2021/06/07 06:12:29;;;;;;;3.98;2.40;;;;;;;17.79;68.14;99853.53;1763059;79;21076;-79
2021/06/07 06:14:56;;;;;;;4.35;2.77;;;;;;;17.85;67.85;99852.78;1757730;79;21023;-79
2021/06/07 06:17:24;;;;;;;5.20;2.70;;;;;;;17.94;67.97;99845.84;1739205;79;20985;-78
2021/06/07 06:19:50;;;;;;;6.90;3.00;;;;;;;17.99;66.94;99852.00;1747559;79;21343;-80
2021/06/07 06:22:18;;;;;;;3.30;2.72;;;;;;;18.01;66.66;99849.97;1768813;80;22641;-79
2021/06/07 06:24:46;;;;;;;5.05;2.50;;;;;;;18.02;66.54;99851.63;1736865;79;21031;-79
2021/06/07 06:27:14;;;;;;;4.83;2.70;;;;;;;18.10;66.55;99848.87;1733538;79;21499;-78
2021/06/07 06:29:42;;;;;;;4.12;2.50;;;;;;;18.20;66.10;99849.94;1718503;81;21068;-81
2021/06/07 06:32:10;;;;;;;5.60;2.60;;;;;;;18.31;66.35;99856.16;1761013;80;20983;-75
2021/06/07 06:34:40;;;;;;;3.17;2.25;;;;;;;18.44;65.90;99850.19;1770931;79;21930;-72
2021/06/07 06:37:07;;;;;;;3.75;2.30;;;;;;;18.57;65.22;99851.17;1778820;79;21398;-73
2021/06/07 06:39:34;;;;;;;3.10;2.35;;;;;;;18.71;65.46;99850.02;1706451;81;21004;-71
2021/06/07 06:42:00;;;;;;;2.17;1.92;;;;;;;18.92;64.17;99852.77;1742463;79;21079;-81
2021/06/07 06:44:27;;;;;;;3.33;2.08;;;;;;;19.05;62.10;99848.89;1769146;80;21119;-77
2021/06/07 06:46:53;;;;;;;4.12;2.00;;;;;;;19.11;62.23;99850.83;1747854;79;22569;-76
2021/06/07 06:49:20;;;;;;;4.05;2.10;;;;;;;19.14;61.63;99845.59;1725474;81;22486;-79
2021/06/07 06:51:46;;;;;;;4.03;2.10;;;;;;;19.15;61.39;99847.24;1757859;80;21057;-76
2021/06/07 06:54:13;;;;;;;3.27;1.85;;;;;;;19.19;61.50;99849.84;1760813;80;21564;-76
2021/06/07 06:56:39;;;;;;;4.53;2.08;;;;;;;19.27;61.58;99847.05;1740271;80;21070;-77
2021/06/07 06:59:05;;;;;;;2.80;2.12;;;;;;;19.31;61.03;99856.89;1760882;80;21812;-76
2021/06/07 07:01:32;;;;;;;3.17;2.20;;;;;;;19.27;61.11;99860.44;1746408;80;21473;-78
2021/06/07 07:03:59;;;;;;;5.05;2.60;;;;;;;19.25;61.61;99851.77;1761578;80;21471;-76
2021/06/07 07:06:25;;;;;;;3.40;2.10;;;;;;;19.35;61.97;99856.81;1760459;79;21401;-77
2021/06/07 07:08:52;;;;;;;4.67;2.10;;;;;;;19.47;61.94;99855.78;1772647;80;21634;-75
2021/06/07 07:11:19;;;;;;;5.92;2.35;;;;;;;19.60;61.55;99857.30;1752037;79;21807;-75
2021/06/07 07:13:46;;;;;;;3.45;2.22;;;;;;;19.65;61.11;99858.36;1767192;79;21444;-76
2021/06/07 07:16:12;;;;;;;2.35;2.15;;;;;;;19.67;60.74;99859.50;1761224;79;21442;-76
2021/06/07 07:18:39;;;;;;;4.17;2.33;;;;;;;19.69;60.79;99857.48;1760058;80;21581;-76
2021/06/07 07:21:05;;;;;;;3.45;2.30;;;;;;;19.68;60.88;99862.50;1776228;80;20925;-77
2021/06/07 07:23:33;;;;;;;4.58;2.37;;;;;;;19.67;61.03;99867.54;1771808;80;21832;-77
2021/06/07 07:26:01;;;;;;;3.15;2.37;;;;;;;19.54;60.62;99864.72;1748711;80;21483;-76
2021/06/07 07:28:27;;;;;;;4.90;2.58;;;;;;;19.41;61.16;99866.78;1768068;79;20924;-81
2021/06/07 07:30:54;;;;;;;2.65;2.27;;;;;;;19.31;61.33;99858.23;1775081;80;20988;-78
2021/06/07 07:33:21;;;;;;;4.67;2.22;;;;;;;19.29;61.91;99862.41;1746033;79;20996;-80
2021/06/07 07:35:48;;;;;;;3.27;2.60;;;;;;;19.39;61.81;99868.79;1748995;79;22243;-78
2021/06/07 07:38:15;;;;;;;3.42;2.30;;;;;;;19.42;61.60;99863.91;1729980;80;21044;-77
2021/06/07 07:40:42;;;;;;;2.65;2.08;;;;;;;19.53;61.46;99865.75;1769241;80;20968;-76
2021/06/07 07:43:09;;;;;;;2.52;2.17;;;;;;;19.60;61.39;99870.70;1759031;79;21098;-78
2021/06/07 07:45:36;;;;;;;3.47;2.40;;;;;;;19.73;61.18;99871.63;1734699;81;21616;-78
2021/06/07 07:48:06;;;;;;;4.40;2.33;;;;;;;19.78;60.60;99871.55;1706751;81;21531;-78
2021/06/07 07:50:33;;;;;;;4.58;2.33;;;;;;;19.86;60.47;99872.23;1727304;82;21027;-77
2021/06/07 07:52:59;;;;;;;2.60;2.10;;;;;;;19.95;59.51;99876.95;1738221;81;21031;-79
2021/06/07 07:55:30;;;;;;;2.20;2.00;;;;;;;19.92;58.60;99877.34;1721651;81;21016;-80
2021/06/07 07:57:56;;;;;;;5.45;2.15;;;;;;;19.87;58.88;99875.74;1706441;81;21440;-79
2021/06/07 08:00:27;;;;;;;6.08;2.35;;;;;;;19.88;59.62;99874.23;1715679;81;21793;-79
2021/06/07 08:02:53;;;;;;;2.92;2.30;;;;;;;19.90;59.11;99876.20;1738662;81;20968;-80
2021/06/07 08:05:20;;;;;;;5.55;2.42;;;;;;;19.90;59.24;99870.84;1724459;82;21012;-80
2021/06/07 08:07:46;;;;;;;3.85;2.50;;;;;;;20.00;59.79;99867.31;1746612;80;20952;-80
2021/06/07 08:10:15;;;;;;;3.47;2.30;;;;;;;20.20;59.71;99868.78;1747840;80;21068;-77
2021/06/07 08:12:43;;;;;;;3.40;2.15;;;;;;;20.37;59.47;99867.97;1741163;80;21023;-77
2021/06/07 08:15:11;;;;;;;4.67;2.27;;;;;;;20.50;59.74;99876.63;1727990;80;21513;-78
2021/06/07 08:17:38;;;;;;;3.08;2.20;;;;;;;20.64;59.24;99879.67;1755385;80;21020;-81
2021/06/07 08:20:13;;;;;;;4.97;2.35;;;;;;;20.71;57.88;99883.74;1762413;79;20929;-77
2021/06/07 08:22:39;;;;;;;5.08;2.65;;;;;;;20.64;57.24;99878.33;1760306;78;21071;-81
2021/06/07 08:25:06;;;;;;;2.98;2.00;;;;;;;20.57;57.65;99884.20;1753747;80;21783;-80
2021/06/07 08:27:33;;;;;;;3.05;2.30;;;;;;;20.62;57.83;99889.78;1789159;78;20972;-81
2021/06/07 08:30:00;;;;;;;3.92;2.30;;;;;;;20.55;57.09;99884.89;1749448;80;21142;-82
2021/06/07 08:32:27;;;;;;;2.62;2.02;;;;;;;20.45;57.48;99886.59;1746810;79;21110;-85
2021/06/07 08:34:54;;;;;;;6.10;2.50;;;;;;;20.44;57.84;99884.94;1743944;79;21043;-86
2021/06/07 08:37:20;;;;;;;7.67;2.52;;;;;;;20.46;57.84;99874.86;1759553;79;21832;-85
2021/06/07 08:39:47;;;;;;;6.40;2.42;;;;;;;20.57;58.09;99882.34;1760464;79;21522;-85
2021/06/07 08:42:13;;;;;;;4.15;2.60;;;;;;;20.70;57.58;99883.43;1756122;79;21507;-83
2021/06/07 08:44:40;;;;;;;4.35;2.37;;;;;;;20.80;57.60;99879.86;1723462;80;21542;-84
2021/06/07 08:47:07;;;;;;;3.83;2.10;;;;;;;20.92;57.23;99878.77;1764702;80;20889;-86
2021/06/07 08:49:34;;;;;;;3.52;2.02;;;;;;;20.97;57.11;99873.13;1748858;79;22580;-86
2021/06/07 08:52:00;;;;;;;5.10;2.42;;;;;;;21.03;56.99;99878.18;1764229;80;20955;-83
2021/06/07 08:54:29;;;;;;;3.08;2.67;;;;;;;21.03;57.26;99864.24;1743553;80;21102;-84
2021/06/07 08:56:56;;;;;;;3.08;2.45;;;;;;;21.10;57.20;99868.30;1745614;78;21043;-83
2021/06/07 08:59:23;;;;;;;2.50;2.20;;;;;;;21.15;56.10;99859.95;1750536;79;20948;-82
2021/06/07 09:01:54;;;;;;;3.42;2.20;;;;;;;21.19;56.42;99861.71;1733492;82;21836;-82
2021/06/07 09:04:23;;;;;;;3.50;2.10;;;;;;;21.25;55.39;99852.02;1743697;79;21119;-83
2021/06/07 09:06:52;;;;;;;2.87;2.10;;;;;;;21.26;55.76;99849.16;1733710;81;21103;-84
2021/06/07 09:09:22;;;;;;;2.58;2.05;;;;;;;21.35;55.22;99853.31;1697731;81;21067;-84
2021/06/07 09:12:04;;;;;;;4.92;1.92;;;;;;;21.42;54.50;99847.93;1709986;80;21048;-82
2021/06/07 09:14:33;;;;;;;4.03;2.10;;;;;;;21.60;54.99;99843.30;1734720;80;21854;-84
2021/06/07 09:17:00;;;;;;;3.80;2.25;;;;;;;21.72;54.62;99844.35;1741167;80;21019;-78
2021/06/07 09:19:29;;;;;;;2.02;1.75;;;;;;;21.59;54.18;99849.19;1749809;80;21040;-82
2021/06/07 09:22:16;;;;;;;3.72;1.90;;;;;;;21.49;55.04;99837.20;1734995;80;21406;-82
2021/06/07 09:25:10;;;;;;;3.22;1.90;;;;;;;21.47;54.64;99836.58;1735160;80;21428;-82
2021/06/07 09:27:38;;;;;;;2.42;1.72;;;;;;;21.56;54.57;99840.72;1768647;80;21752;-86
2021/06/07 09:30:30;;;;;;;3.20;1.70;;;;;;;21.72;53.75;99836.29;1755985;79;20960;-75
2021/06/07 09:33:33;;;;;;;1.77;1.60;;;;;;;21.93;53.71;99835.23;1756598;80;20964;-86
2021/06/07 09:36:29;;;;;;;3.87;2.08;;;;;;;22.22;52.54;99821.35;1767732;79;21040;-84
2021/06/07 09:39:25;;;;;;;3.47;1.67;;;;;;;22.48;52.22;99816.91;1774608;79;21335;-85
2021/06/07 09:41:56;;;;;;;1.47;1.30;;;;;;;22.65;51.01;99818.61;1768668;79;22607;-81
2021/06/07 09:44:51;;;;;;;1.62;1.30;;;;;;;22.82;49.37;99811.70;1760539;79;21407;-83
2021/06/07 09:47:31;;;;;;;1.30;1.20;;;;;;;22.85;48.57;99806.73;1751768;79;21331;-80
2021/06/07 09:50:07;;;;;;;2.02;1.47;;;;;;;22.87;47.44;99801.13;1760993;79;21051;-80
2021/06/07 09:52:44;;;;;;;2.80;1.37;;;;;;;22.93;47.52;99796.23;1767445;79;20935;-81
2021/06/07 09:55:25;;;;;;;1.87;1.47;;;;;;;22.87;47.86;99801.65;1758204;79;21875;-84
2021/06/07 09:57:57;;;;;;;1.30;1.20;;;;;;;22.78;47.31;99811.84;1772712;79;20908;-83
2021/06/07 10:00:47;;;;;;;1.72;1.62;;;;;;;22.71;48.53;99807.00;1730753;80;21493;-80
2021/06/07 10:03:26;;;;;;;1.20;1.10;;;;;;;22.80;48.31;99810.58;1742405;78;21086;-81
2021/06/07 10:05:58;;;;;;;3.15;1.40;;;;;;;22.92;48.50;99801.31;1739545;80;21127;-84
2021/06/07 10:08:25;;;;;;;2.08;1.20;;;;;;;23.17;48.86;99791.95;1730825;81;21829;-86
2021/06/07 10:10:54;;;;;;;1.72;1.45;;;;;;;23.58;47.71;99794.64;1748183;80;21423;-79
2021/06/07 10:13:20;;;;;;;2.60;1.45;;;;;;;23.92;46.40;99798.17;1763962;80;21012;-79
2021/06/07 10:15:49;;;;;;;2.27;1.30;;;;;;;24.21;45.92;99793.09;1760219;79;21458;-80
2021/06/07 10:18:20;;;;;;;1.37;1.27;;;;;;;24.37;45.61;99797.94;1748777;80;20917;-78
2021/06/07 10:20:51;;;;;;;3.72;1.40;;;;;;;24.44;45.54;99789.23;1746327;79;21749;-78
2021/06/07 10:23:27;;;;;;;1.40;1.30;;;;;;;24.62;45.83;99785.70;1761126;79;21074;-79
2021/06/07 10:25:58;;;;;;;2.00;1.30;;;;;;;24.82;45.81;99777.33;1754525;79;20932;-78
2021/06/07 10:28:37;;;;;;;2.40;1.17;;;;;;;24.93;43.60;99781.94;1751599;80;21471;-79
2021/06/07 10:31:13;;;;;;;3.15;1.40;;;;;;;24.67;43.76;99780.95;1767821;79;20999;-78
2021/06/07 10:33:41;;;;;;;2.15;1.60;;;;;;;24.54;44.73;99781.42;1758560;80;21828;-77
2021/06/07 10:36:29;;;;;;;1.40;1.30;;;;;;;24.66;46.75;99782.00;1738377;79;20952;-78
2021/06/07 10:39:20;;;;;;;4.80;1.55;;;;;;;24.90;45.02;99785.61;1759868;80;21004;-78
2021/06/07 10:42:14;;;;;;;1.62;1.25;;;;;;;24.95;45.08;99778.48;1751013;80;20984;-77
2021/06/07 10:44:58;;;;;;;;;;;;;;;25.06;44.43;99787.70;1747699;79;21019;-77
2021/06/07 10:47:29;;;;;;;2.83;1.40;;;;;;;24.85;42.88;99793.06;1754398;79;22468;-77
2021/06/07 10:50:07;;;;;;;1.60;1.20;;;;;;;24.29;44.28;99799.55;1761863;80;21300;-78
2021/06/07 10:52:53;;;;;;;3.30;1.50;;;;;;;23.94;45.39;99805.53;1752252;79;20975;-77
2021/06/07 10:55:25;;;;;;;1.95;1.60;;;;;;;23.50;46.80;99809.73;1734733;81;21088;-80
2021/06/07 10:57:55;;;;;;;3.83;1.70;;;;;;;23.02;48.11;99806.23;1746041;79;20972;-77
2021/06/07 11:00:39;;;;;;;2.83;1.50;;;;;;;22.67;49.02;99815.17;1771001;79;21818;-79
2021/06/07 11:03:19;;;;;;;4.87;1.22;;;;;;;22.35;48.92;99821.00;1769326;79;21334;-78
2021/06/07 11:05:48;;;;;;;2.77;1.20;;;;;;;21.87;49.25;99819.41;1758526;79;21162;-78
2021/06/07 11:08:25;;;;;;;2.98;1.52;;;;;;;21.49;52.39;99831.83;1755562;80;21054;-78
2021/06/07 11:11:13;;;;;;;1.90;1.70;;;;;;;20.99;56.01;99827.27;1760417;79;21316;-78
2021/06/07 11:13:51;;;;;;;1.67;1.35;;;;;;;20.45;58.16;99845.02;1760640;79;21852;-78
2021/06/07 11:16:46;;;;;;;2.12;1.40;;;;;;;20.08;59.41;99851.59;1771603;80;21087;-78
2021/06/07 11:19:17;;;;;;;1.70;1.27;;;;;;;19.73;60.08;99848.02;1769664;80;21032;-78
2021/06/07 11:21:50;;;;;;;2.65;1.40;;;;;;;19.41;61.09;99843.50;1777073;79;20936;-80
2021/06/07 11:24:37;;;;;;;3.50;1.50;;;;;;;19.14;61.63;99838.90;1760215;80;20945;-79
2021/06/07 11:27:07;;;;;;;3.22;1.87;;;;;;;18.99;62.41;99836.25;1761595;79;22475;-79
2021/06/07 11:29:35;;;;;;;1.90;1.45;;;;;;;18.98;62.88;99825.74;1714284;82;21071;-79
2021/06/07 11:32:10;;;;;;;2.30;1.40;;;;;;;18.96;62.68;99819.76;1700808;81;21068;-79
2021/06/07 11:34:43;;;;;;;2.22;1.22;;;;;;;18.82;62.39;99823.63;1738253;80;21057;-80
2021/06/07 11:37:14;;;;;;;3.37;1.42;;;;;;;18.81;62.94;99813.09;1746502;80;20929;-81
2021/06/07 11:39:48;;;;;;;2.62;1.25;;;;;;;18.85;63.22;99804.52;1767976;79;21828;-80
2021/06/07 11:42:16;;;;;;;4.85;1.80;;;;;;;18.90;63.46;99804.45;1737934;80;20928;-78
2021/06/07 11:44:51;;;;;;;2.15;1.20;;;;;;;18.93;63.05;99801.41;1739617;79;20936;-81
2021/06/07 11:47:25;;;;;;;2.40;1.30;;;;;;;18.95;63.06;99797.52;1770614;79;21372;-80